Main page
METAR-TAF:

METAR-TAF

Airports :

Curaçao International Airport

Curaçao, Netherlands Antilles

latitude: 12-12N, longitude: 068-58W, elevation: 9 m

Current weather observation

The report was made 1 hour and 0 minutes ago, at 21:00 UTC
Wind 16 kt from the East
Temperature 29°C
Humidity 70%
Pressure 1013 hPa

METAR: TNCC 172100Z AUTO 10016KT //// NSC 29/23 Q1013

Time: 18:00 (22:00 UTC)

Forecast

The report was made 6 hours and 0 minutes ago, at 16:00 UTC
Forecast valid from 17 at 18 UTC to 18 at 18 UTC
Wind 17 kt from the East with gusts up to 30 kt
Visibility 10 km or more
Scattered clouds at a height of 2500 ft
Probability 30% :
Temporary
from 18 at 07 UTC to 18 at 14 UTC
Broken clouds at a height of 2000 ft

TAF: TNCC 171600Z 1718/1818 10017G30KT 9999 SCT025 PROB30 TEMPO 1807/1814 BKN020

Weather observations and forecasts of more than 4000 airports (METAR and TAF reports).

The available stations are represented by yellow and red dots on the map.

Hover mouse over dot to see the name of the station.

Then click to see weather observations and forecasts.

To change the map : click on the green buttons with a black cross to zoom in, on the green button with a dash to zoom out, or on the green arrows for adjacent maps.


METAR-TAF: